OHVAB EFOU-EFOU

Flight info

Callsign OHVAB
Flight time 0h 53m
Altitude 2300
Route OUAP
Aircraft SF50/L-SGBRWZ/LB1

Departure

Time 2026-04-27 17:40
Airport Oulu Airport (EFOU)

Arrival

Time 2026-04-27 18:33
Airport Oulu Airport (EFOU)
Time Latitude Longitude Altitude Speed Heading
2026-04-27 17:21 64.92991 25.36727 38 ft 0 kts 122°
2026-04-27 17:35 64.92990 25.36729 38 ft 1 kts 148°
2026-04-27 17:35 64.92941 25.36663 38 ft 13 kts 194°
2026-04-27 17:35 64.92868 25.36791 38 ft 15 kts 122°
2026-04-27 17:35 64.92817 25.36993 38 ft 17 kts 121°
2026-04-27 17:36 64.92755 25.37233 38 ft 18 kts 121°
2026-04-27 17:36 64.92689 25.37494 38 ft 19 kts 121°
2026-04-27 17:36 64.92621 25.37760 38 ft 18 kts 121°
2026-04-27 17:36 64.92558 25.37943 38 ft 12 kts 163°
2026-04-27 17:37 64.92495 25.37889 37 ft 9 kts 229°
2026-04-27 17:37 64.92476 25.37736 36 ft 11 kts 268°
2026-04-27 17:37 64.92481 25.37576 37 ft 9 kts 287°
2026-04-27 17:37 64.92491 25.37508 38 ft 0 kts 297°
2026-04-27 17:39 64.92562 25.37228 40 ft 52 kts 301°
2026-04-27 17:39 64.92844 25.36121 193 ft 91 kts 307°
2026-04-27 17:39 64.93180 25.34711 562 ft 108 kts 304°
2026-04-27 17:40 64.93558 25.33004 1117 ft 123 kts 304°
2026-04-27 17:40 64.94004 25.31144 1522 ft 139 kts 311°
2026-04-27 17:40 64.94609 25.29190 1964 ft 151 kts 312°
2026-04-27 17:40 64.95236 25.27120 2315 ft 167 kts 313°
2026-04-27 17:41 64.95988 25.24731 2319 ft 193 kts 314°
2026-04-27 17:41 64.97053 25.22630 2320 ft 209 kts 331°
2026-04-27 17:41 64.98332 25.20788 2320 ft 225 kts 333°
2026-04-27 17:41 64.99708 25.18843 2318 ft 232 kts 333°
2026-04-27 17:42 65.01078 25.16905 2318 ft 228 kts 333°
2026-04-27 17:42 65.02435 25.14984 2317 ft 226 kts 333°
2026-04-27 17:42 65.03785 25.13072 2315 ft 225 kts 333°
2026-04-27 17:42 65.05132 25.11160 2312 ft 224 kts 333°
2026-04-27 17:43 65.06398 25.09095 2300 ft 226 kts 320°
2026-04-27 17:43 65.07150 25.05789 2293 ft 236 kts 289°
2026-04-27 17:43 65.07067 25.01869 2307 ft 246 kts 258°
2026-04-27 17:43 65.06144 24.98455 2302 ft 250 kts 227°
2026-04-27 17:44 65.04630 24.96563 2302 ft 246 kts 194°
2026-04-27 17:44 65.02971 24.96656 2300 ft 234 kts 163°
2026-04-27 17:44 65.01642 24.98505 2299 ft 212 kts 127°
2026-04-27 17:44 65.01049 25.01400 2305 ft 185 kts 92°
2026-04-27 17:45 65.00788 25.04317 2301 ft 180 kts 100°
2026-04-27 17:45 65.00226 25.06896 2302 ft 176 kts 112°
2026-04-27 17:45 64.99623 25.09360 2302 ft 170 kts 112°
2026-04-27 17:45 64.99022 25.11754 2247 ft 170 kts 112°
2026-04-27 17:46 64.98426 25.14151 2020 ft 169 kts 112°
2026-04-27 17:46 64.97820 25.16520 1781 ft 168 kts 113°
2026-04-27 17:46 64.97221 25.18882 1544 ft 166 kts 112°
2026-04-27 17:46 64.96628 25.21219 1309 ft 165 kts 114°
2026-04-27 17:47 64.96044 25.23478 1079 ft 158 kts 113°
2026-04-27 17:47 64.95682 25.24938 930 ft 150 kts 114°
2026-04-27 17:47 64.95030 25.27496 646 ft 125 kts 115°
2026-04-27 17:47 64.94606 25.29157 483 ft 116 kts 117°
2026-04-27 17:48 64.94192 25.30793 327 ft 115 kts 116°
2026-04-27 17:48 64.93764 25.32434 260 ft 118 kts 115°
2026-04-27 17:48 64.93345 25.34038 424 ft 112 kts 115°
2026-04-27 17:48 64.92886 25.35675 786 ft 124 kts 113°
2026-04-27 17:49 64.92749 25.37593 1238 ft 120 kts 71°
2026-04-27 17:49 64.92918 25.39706 1524 ft 143 kts 67°
2026-04-27 17:49 64.93229 25.42066 1916 ft 155 kts 70°
2026-04-27 17:49 64.93395 25.44619 2310 ft 165 kts 71°
2026-04-27 17:50 64.93972 25.46998 2316 ft 178 kts 36°
2026-04-27 17:50 64.96529 25.46931 2314 ft 220 kts 329°
2026-04-27 17:50 64.97631 25.44240 2323 ft 234 kts 314°
2026-04-27 17:51 64.98652 25.41146 2315 ft 242 kts 312°
2026-04-27 17:51 64.99669 25.37980 2322 ft 239 kts 312°
2026-04-27 17:51 65.00658 25.34889 2318 ft 233 kts 312°
2026-04-27 17:51 65.01617 25.31892 2310 ft 223 kts 312°
2026-04-27 17:52 65.02522 25.29019 2305 ft 212 kts 312°
2026-04-27 17:52 65.03366 25.26299 2300 ft 203 kts 312°
2026-04-27 17:52 65.04181 25.23643 2303 ft 195 kts 312°
2026-04-27 17:52 65.04965 25.21078 2304 ft 188 kts 312°
2026-04-27 17:53 65.05718 25.18594 2301 ft 183 kts 312°
2026-04-27 17:53 65.06452 25.16168 2300 ft 179 kts 312°
2026-04-27 17:53 65.07176 25.13779 2303 ft 176 kts 312°
2026-04-27 17:53 65.07892 25.11410 2305 ft 177 kts 312°
2026-04-27 17:54 65.08608 25.09038 2307 ft 177 kts 312°
2026-04-27 17:54 65.09315 25.06697 2309 ft 177 kts 312°
2026-04-27 17:54 65.10031 25.04320 2312 ft 177 kts 312°
2026-04-27 17:54 65.10749 25.01948 2312 ft 177 kts 313°
2026-04-27 17:55 65.11313 24.99325 2308 ft 187 kts 288°
2026-04-27 17:55 65.11087 24.96173 2309 ft 205 kts 249°
2026-04-27 17:55 65.10049 24.93766 2311 ft 214 kts 214°
2026-04-27 17:55 65.08747 24.92061 2308 ft 213 kts 212°
2026-04-27 17:56 65.07445 24.90427 2308 ft 211 kts 204°
2026-04-27 17:56 65.06007 24.90155 2313 ft 208 kts 167°
2026-04-27 17:56 65.04667 24.91269 2309 ft 196 kts 142°
2026-04-27 17:56 65.03777 24.93303 2310 ft 169 kts 117°
2026-04-27 17:57 65.03166 24.95558 2305 ft 159 kts 113°
2026-04-27 17:57 65.02585 24.97742 2302 ft 155 kts 112°
2026-04-27 17:57 65.02043 24.99912 2307 ft 152 kts 110°
2026-04-27 17:57 65.01493 25.02054 2308 ft 152 kts 112°
2026-04-27 17:58 65.00954 25.04206 2309 ft 152 kts 110°
2026-04-27 17:58 65.00408 25.06339 2308 ft 153 kts 112°
2026-04-27 17:58 64.99862 25.08504 2314 ft 153 kts 110°
2026-04-27 17:58 64.99310 25.10675 2314 ft 155 kts 112°
2026-04-27 17:59 64.98748 25.12893 2143 ft 160 kts 110°
2026-04-27 17:59 64.98168 25.15183 1921 ft 165 kts 113°
2026-04-27 17:59 64.97571 25.17507 1681 ft 164 kts 112°
2026-04-27 17:59 64.97004 25.19775 1451 ft 162 kts 113°
2026-04-27 18:00 64.96418 25.22031 1222 ft 160 kts 113°
2026-04-27 18:00 64.95863 25.24279 993 ft 158 kts 114°
2026-04-27 18:00 64.95303 25.26437 758 ft 151 kts 117°
2026-04-27 18:00 64.94786 25.28455 548 ft 136 kts 115°
2026-04-27 18:01 64.94315 25.30310 400 ft 127 kts 114°
2026-04-27 18:01 64.93880 25.32045 240 ft 120 kts 116°
2026-04-27 18:01 64.93439 25.33779 118 ft 135 kts 118°
2026-04-27 18:01 64.92928 25.35730 517 ft 143 kts 118°
2026-04-27 18:02 64.92357 25.37729 957 ft 151 kts 121°
2026-04-27 18:02 64.91703 25.39748 1387 ft 157 kts 120°
2026-04-27 18:02 64.91019 25.41801 1796 ft 161 kts 121°
2026-04-27 18:02 64.90284 25.43871 2228 ft 174 kts 121°
2026-04-27 18:03 64.89471 25.46228 2318 ft 197 kts 121°
2026-04-27 18:03 64.88739 25.49033 2319 ft 204 kts 99°
2026-04-27 18:03 64.88624 25.52364 2322 ft 209 kts 82°
2026-04-27 18:03 64.88654 25.55886 2322 ft 221 kts 82°
2026-04-27 18:04 64.88691 25.59590 2319 ft 227 kts 82°
2026-04-27 18:04 64.88726 25.63293 2314 ft 228 kts 82°
2026-04-27 18:04 64.88762 25.67005 2315 ft 226 kts 82°
2026-04-27 18:04 64.88793 25.70683 2312 ft 224 kts 82°
2026-04-27 18:05 64.88827 25.74268 2313 ft 211 kts 82°
2026-04-27 18:05 64.88839 25.77574 2302 ft 196 kts 82°
2026-04-27 18:05 64.88843 25.80790 2296 ft 195 kts 83°
2026-04-27 18:05 64.88434 25.83872 2290 ft 210 kts 117°
2026-04-27 18:06 64.87258 25.85996 2286 ft 222 kts 155°
2026-04-27 18:06 64.85720 25.86197 2289 ft 224 kts 194°
2026-04-27 18:06 64.84418 25.84379 2285 ft 215 kts 233°
2026-04-27 18:06 64.83833 25.81355 2289 ft 195 kts 269°
2026-04-27 18:07 64.83736 25.78272 2293 ft 188 kts 271°
2026-04-27 18:07 64.83516 25.75269 2289 ft 183 kts 271°
2026-04-27 18:07 64.83621 25.72430 2298 ft 169 kts 295°
2026-04-27 18:07 64.84114 25.70048 2299 ft 162 kts 309°
2026-04-27 18:08 64.84701 25.67802 2299 ft 161 kts 309°
2026-04-27 18:08 64.85283 25.65552 2300 ft 159 kts 309°
2026-04-27 18:08 64.85853 25.63345 2299 ft 156 kts 309°
2026-04-27 18:08 64.86411 25.61176 2301 ft 153 kts 310°
2026-04-27 18:09 64.86941 25.59106 2313 ft 135 kts 310°
2026-04-27 18:09 64.87390 25.57339 2302 ft 119 kts 312°
2026-04-27 18:09 64.87814 25.55703 2201 ft 117 kts 312°
2026-04-27 18:09 64.88242 25.54065 2021 ft 120 kts 311°
2026-04-27 18:10 64.88683 25.52358 1824 ft 123 kts 311°
2026-04-27 18:10 64.89128 25.50628 1620 ft 123 kts 311°
2026-04-27 18:10 64.89552 25.48961 1413 ft 113 kts 310°
2026-04-27 18:10 64.89945 25.47429 1224 ft 107 kts 310°
2026-04-27 18:11 64.90336 25.45924 1044 ft 109 kts 310°
2026-04-27 18:11 64.90729 25.44407 849 ft 108 kts 308°
2026-04-27 18:11 64.91115 25.42890 663 ft 108 kts 307°
2026-04-27 18:11 64.91501 25.41393 483 ft 106 kts 307°
2026-04-27 18:12 64.91880 25.39902 321 ft 108 kts 304°
2026-04-27 18:12 64.92261 25.38389 174 ft 107 kts 306°
2026-04-27 18:12 64.92651 25.36882 154 ft 111 kts 305°
2026-04-27 18:12 64.93043 25.35322 522 ft 112 kts 303°
2026-04-27 18:13 64.93459 25.33627 783 ft 133 kts 306°
2026-04-27 18:13 64.93963 25.31467 1212 ft 164 kts 305°
2026-04-27 18:13 64.94498 25.29009 1798 ft 171 kts 303°
2026-04-27 18:13 64.95024 25.26489 2279 ft 173 kts 304°
2026-04-27 18:14 64.95566 25.23904 2330 ft 178 kts 303°
2026-04-27 18:14 64.96119 25.21259 2312 ft 179 kts 305°
2026-04-27 18:14 64.96970 25.19310 2311 ft 168 kts 338°
2026-04-27 18:14 64.98040 25.18291 2310 ft 168 kts 342°
2026-04-27 18:15 64.99131 25.17270 2306 ft 170 kts 342°
2026-04-27 18:15 65.00231 25.16241 2312 ft 170 kts 342°
2026-04-27 18:15 65.00611 25.15884 2312 ft 170 kts 342°
2026-04-27 18:16 65.01042 25.15482 2313 ft 170 kts 342°
2026-04-27 18:16 65.02148 25.14462 2311 ft 170 kts 343°
2026-04-27 18:16 65.03240 25.13399 2313 ft 168 kts 341°
2026-04-27 18:16 65.04257 25.12100 2302 ft 168 kts 338°
2026-04-27 18:17 65.05355 25.11243 2303 ft 165 kts 358°
2026-04-27 18:17 65.06428 25.12084 2307 ft 167 kts 30°
2026-04-27 18:17 65.07372 25.13706 2310 ft 168 kts 32°
2026-04-27 18:17 65.08324 25.15320 2308 ft 169 kts 32°
2026-04-27 18:18 65.09280 25.16942 2312 ft 170 kts 32°
2026-04-27 18:18 65.10244 25.18582 2311 ft 170 kts 32°
2026-04-27 18:18 65.11209 25.20223 2317 ft 171 kts 32°
2026-04-27 18:18 65.12009 25.22294 2302 ft 178 kts 59°
2026-04-27 18:19 65.12152 25.24249 2309 ft 189 kts 85°
2026-04-27 18:19 65.11315 25.28050 2305 ft 206 kts 126°
2026-04-27 18:19 65.10378 25.30614 2315 ft 205 kts 122°
2026-04-27 18:19 65.09472 25.33259 2312 ft 206 kts 122°
2026-04-27 18:20 65.08876 25.35015 2319 ft 207 kts 122°
2026-04-27 18:20 65.07975 25.37688 2312 ft 207 kts 122°
2026-04-27 18:20 65.06772 25.41222 2314 ft 208 kts 122°
2026-04-27 18:20 65.06159 25.43027 2317 ft 208 kts 122°
2026-04-27 18:21 65.05257 25.45700 2319 ft 207 kts 122°
2026-04-27 18:21 65.04366 25.48336 2315 ft 208 kts 122°
2026-04-27 18:21 65.03461 25.51002 2316 ft 208 kts 122°
2026-04-27 18:21 65.02521 25.53600 2317 ft 210 kts 131°
2026-04-27 18:22 65.01179 25.55070 2304 ft 218 kts 167°
2026-04-27 18:22 64.99669 25.55452 2309 ft 217 kts 173°
2026-04-27 18:22 64.98201 25.55790 2305 ft 207 kts 172°
2026-04-27 18:22 64.96772 25.56130 2300 ft 206 kts 172°
2026-04-27 18:23 64.95341 25.56468 2303 ft 207 kts 172°
2026-04-27 18:23 64.93904 25.56811 2304 ft 208 kts 172°
2026-04-27 18:23 64.92456 25.57152 2305 ft 209 kts 172°
2026-04-27 18:23 64.91010 25.57487 2303 ft 208 kts 172°
2026-04-27 18:24 64.89591 25.57815 2310 ft 207 kts 172°
2026-04-27 18:24 64.88156 25.58153 2305 ft 207 kts 172°
2026-04-27 18:24 64.86724 25.58490 2303 ft 208 kts 172°
2026-04-27 18:24 64.85279 25.58818 2302 ft 209 kts 172°
2026-04-27 18:25 64.83826 25.59139 2307 ft 209 kts 172°
2026-04-27 18:25 64.82370 25.59466 2303 ft 210 kts 172°
2026-04-27 18:25 64.80918 25.59794 2306 ft 209 kts 172°
2026-04-27 18:25 64.79487 25.60138 2308 ft 209 kts 172°
2026-04-27 18:26 64.78070 25.60726 2296 ft 205 kts 154°
2026-04-27 18:26 64.77039 25.62795 2296 ft 191 kts 112°
2026-04-27 18:26 64.76825 25.65648 2296 ft 172 kts 71°
2026-04-27 18:26 64.77438 25.67851 2299 ft 159 kts 34°
2026-04-27 18:27 64.78328 25.69354 2309 ft 158 kts 32°
2026-04-27 18:27 64.79217 25.70875 2309 ft 159 kts 32°
2026-04-27 18:27 64.80105 25.72411 2306 ft 158 kts 32°
2026-04-27 18:27 64.81081 25.73394 2301 ft 154 kts
2026-04-27 18:28 64.82085 25.72523 2301 ft 159 kts 332°
2026-04-27 18:28 64.83001 25.71117 2302 ft 159 kts 334°
2026-04-27 18:28 64.83925 25.69670 2304 ft 161 kts 327°
2026-04-27 18:28 64.84692 25.67726 2301 ft 165 kts 313°
2026-04-27 18:29 64.85312 25.65441 2301 ft 165 kts 309°
2026-04-27 18:29 64.85883 25.63208 2299 ft 153 kts 309°
2026-04-27 18:29 64.86422 25.61119 2299 ft 148 kts 310°
2026-04-27 18:29 64.86960 25.59045 2299 ft 148 kts 310°
2026-04-27 18:30 64.87470 25.57042 2310 ft 134 kts 310°
2026-04-27 18:30 64.87940 25.55217 2148 ft 128 kts 311°
2026-04-27 18:30 64.88397 25.53449 1944 ft 128 kts 311°
2026-04-27 18:30 64.88861 25.51657 1735 ft 125 kts 311°
2026-04-27 18:31 64.89260 25.50072 1537 ft 105 kts 312°
2026-04-27 18:31 64.89632 25.48653 1365 ft 99 kts 313°
2026-04-27 18:31 64.89984 25.47291 1206 ft 97 kts 312°
2026-04-27 18:31 64.90337 25.45927 1033 ft 98 kts 310°
2026-04-27 18:32 64.90697 25.44546 860 ft 100 kts 309°
2026-04-27 18:32 64.91064 25.43112 688 ft 102 kts 307°
2026-04-27 18:32 64.91423 25.41700 523 ft 98 kts 309°
2026-04-27 18:32 64.91764 25.40334 376 ft 96 kts 307°
2026-04-27 18:33 64.92111 25.38998 229 ft 96 kts 304°
2026-04-27 18:33 64.92448 25.37669 84 ft 91 kts 307°
2026-04-27 18:33 64.92717 25.36600 41 ft 62 kts 299°
2026-04-27 18:33 64.92892 25.35937 43 ft 22 kts 301°
2026-04-27 18:34 64.92953 25.35836 43 ft 9 kts 20°
2026-04-27 18:34 64.92997 25.35960 38 ft 11 kts 61°
2026-04-27 18:34 64.93033 25.36123 38 ft 10 kts 85°
2026-04-27 18:34 64.93002 25.36262 38 ft 10 kts 120°
2026-04-27 18:35 64.92967 25.36403 38 ft 8 kts 119°
2026-04-27 18:35 64.92985 25.36518 38 ft 9 kts 59°
2026-04-27 18:35 64.93012 25.36631 38 ft 5 kts 80°
2026-04-27 18:35 64.92996 25.36708 38 ft 6 kts 122°
2026-04-27 18:36 64.92990 25.36730 38 ft 0 kts 122°